createdAt,value
2022-12-03T00:00:48.450Z,-0.42
2022-12-03T00:03:15.577Z,-0.45
2022-12-03T00:05:48.906Z,-0.42
2022-12-03T00:08:16.600Z,-0.42
2022-12-03T00:10:45.088Z,-0.48
2022-12-03T00:13:13.295Z,-0.53
2022-12-03T00:15:40.301Z,-0.41
2022-12-03T00:18:09.720Z,-0.46
2022-12-03T00:20:36.677Z,-0.46
2022-12-03T00:23:05.252Z,-0.47
2022-12-03T00:25:33.284Z,-0.54
2022-12-03T00:28:00.712Z,-0.56
2022-12-03T00:30:29.248Z,-0.50
2022-12-03T00:32:56.686Z,-0.55
2022-12-03T00:35:24.091Z,-0.45
2022-12-03T00:37:51.138Z,-0.42
2022-12-03T00:40:18.466Z,-0.40
2022-12-03T00:42:45.647Z,-0.44
2022-12-03T00:45:13.075Z,-0.48
2022-12-03T00:47:41.403Z,-0.44
2022-12-03T00:50:10.259Z,-0.48
2022-12-03T00:52:38.380Z,-0.58
2022-12-03T00:55:06.127Z,-0.50
2022-12-03T00:57:33.244Z,-0.44
2022-12-03T01:00:07.431Z,-0.50
2022-12-03T01:02:34.815Z,-0.42
2022-12-03T01:05:06.282Z,-0.40
2022-12-03T01:07:33.497Z,-0.40
2022-12-03T01:10:00.843Z,-0.51
2022-12-03T01:12:28.267Z,-0.46
2022-12-03T01:14:55.952Z,-0.59
2022-12-03T01:17:23.126Z,-0.53
2022-12-03T01:19:52.776Z,-0.48
2022-12-03T01:22:20.089Z,-0.49
2022-12-03T01:24:54.101Z,-0.44
2022-12-03T01:27:21.673Z,-0.39
2022-12-03T01:29:48.640Z,-0.47
2022-12-03T01:32:19.784Z,-0.44
2022-12-03T01:34:49.996Z,-0.39
2022-12-03T01:37:17.881Z,-0.53
2022-12-03T01:39:45.203Z,-0.50
2022-12-03T01:42:27.462Z,-0.58
2022-12-03T01:44:57.851Z,-0.59
2022-12-03T01:47:36.110Z,-0.56
2022-12-03T01:50:15.815Z,-0.57
2022-12-03T01:52:43.009Z,-0.61
2022-12-03T01:55:20.858Z,-0.58
2022-12-03T01:57:54.195Z,-0.63
2022-12-03T02:00:27.100Z,-0.49
2022-12-03T02:02:57.421Z,-0.51
2022-12-03T02:05:27.653Z,-0.40
2022-12-03T02:07:57.460Z,-0.40
2022-12-03T02:10:36.339Z,-0.41
2022-12-03T02:13:11.354Z,-0.43
2022-12-03T02:15:40.229Z,-0.52
2022-12-03T02:18:13.319Z,-0.36
2022-12-03T02:21:12.141Z,-0.47
2022-12-03T02:24:08.057Z,-0.44
2022-12-03T02:26:36.314Z,-0.43
2022-12-03T02:29:03.796Z,-0.47
2022-12-03T02:31:32.306Z,-0.48
2022-12-03T02:33:59.773Z,-0.35
2022-12-03T02:36:28.229Z,-0.30
2022-12-03T02:39:04.485Z,-0.40
2022-12-03T02:41:50.354Z,-0.52
2022-12-03T02:44:17.696Z,-0.52
2022-12-03T02:46:48.706Z,-0.43
2022-12-03T02:49:16.264Z,-0.61
2022-12-03T02:51:43.644Z,-0.58
2022-12-03T02:54:11.216Z,-0.57
2022-12-03T02:56:40.689Z,-0.51
2022-12-03T02:59:10.409Z,-0.48
2022-12-03T03:01:38.575Z,-0.50
2022-12-03T03:04:07.117Z,-0.51
2022-12-03T03:06:34.783Z,-0.57
2022-12-03T03:09:03.227Z,-0.47
2022-12-03T03:11:30.629Z,-0.54
2022-12-03T03:13:57.794Z,-0.58
2022-12-03T03:16:24.805Z,-0.55
2022-12-03T03:18:53.316Z,-0.55
2022-12-03T03:21:22.817Z,-0.54
2022-12-03T03:23:50.248Z,-0.55
2022-12-03T03:26:17.936Z,-0.35
2022-12-03T03:28:50.345Z,-0.42
2022-12-03T03:31:23.068Z,-0.43
2022-12-03T03:33:53.393Z,-0.38
2022-12-03T03:36:23.350Z,-0.39
2022-12-03T03:38:53.345Z,-0.42
2022-12-03T03:41:21.892Z,-0.39
2022-12-03T03:43:50.459Z,-0.30
2022-12-03T03:46:19.326Z,-0.41
2022-12-03T03:48:48.847Z,-0.50
2022-12-03T03:51:18.862Z,-0.36
2022-12-03T03:53:49.988Z,-0.43
2022-12-03T03:56:21.776Z,-0.50
2022-12-03T03:58:50.969Z,-0.52
2022-12-03T04:01:18.664Z,-0.43
2022-12-03T04:03:45.667Z,-0.32
2022-12-03T04:06:12.912Z,-0.45
2022-12-03T04:08:40.309Z,-0.33
2022-12-03T04:11:26.252Z,-0.39
2022-12-03T04:13:53.589Z,-0.45
2022-12-03T04:16:21.633Z,-0.53
2022-12-03T04:18:51.137Z,-0.51
2022-12-03T04:21:42.392Z,-0.40
2022-12-03T04:24:11.753Z,-0.33
2022-12-03T04:26:57.472Z,-0.43
2022-12-03T04:29:24.770Z,-0.47
2022-12-03T04:32:11.410Z,-0.42
2022-12-03T04:34:57.622Z,-0.42
2022-12-03T04:37:25.757Z,-0.37
2022-12-03T04:39:52.774Z,-0.60
2022-12-03T04:42:20.167Z,-0.50
2022-12-03T04:44:47.615Z,-0.56
2022-12-03T04:47:21.026Z,-0.58
2022-12-03T04:49:51.939Z,-0.61
2022-12-03T04:52:25.330Z,-0.63
2022-12-03T04:54:52.971Z,-0.64
2022-12-03T04:57:20.215Z,-0.76
2022-12-03T04:59:47.147Z,-0.75
2022-12-03T05:02:16.187Z,-0.57
2022-12-03T05:04:43.582Z,-0.60
2022-12-03T05:07:12.670Z,-0.67
2022-12-03T05:09:40.129Z,-0.65
2022-12-03T05:12:07.691Z,-0.66
2022-12-03T05:14:35.215Z,-0.58
2022-12-03T05:17:02.414Z,-0.66
2022-12-03T05:19:48.582Z,-0.53
2022-12-03T05:22:16.772Z,-0.51
2022-12-03T05:24:45.302Z,-0.43
2022-12-03T05:27:12.753Z,-0.41
2022-12-03T05:29:41.056Z,-0.36
2022-12-03T05:32:10.197Z,-0.35
2022-12-03T05:34:37.217Z,-0.36
2022-12-03T05:37:05.336Z,-0.41
2022-12-03T05:39:34.885Z,-0.50
2022-12-03T05:42:20.462Z,-0.39
2022-12-03T05:44:49.579Z,-0.34
2022-12-03T05:47:16.680Z,-0.44
2022-12-03T05:49:44.176Z,-0.36
2022-12-03T05:52:11.468Z,-0.43
2022-12-03T05:54:39.217Z,-0.48
2022-12-03T05:57:08.366Z,-0.43
2022-12-03T05:59:35.338Z,-0.48
2022-12-03T06:02:04.979Z,-0.48
2022-12-03T06:04:32.345Z,-0.45
2022-12-03T06:06:59.425Z,-0.41
2022-12-03T06:09:26.771Z,-0.41
2022-12-03T06:11:54.473Z,-0.38
2022-12-03T06:14:23.752Z,-0.42
2022-12-03T06:16:51.216Z,-0.40
2022-12-03T06:19:18.657Z,-0.36
2022-12-03T06:21:46.177Z,-0.31
2022-12-03T06:24:13.590Z,-0.23
2022-12-03T06:26:40.736Z,-0.32
2022-12-03T06:29:09.053Z,-0.31
2022-12-03T06:31:36.156Z,-0.29
2022-12-03T06:34:03.564Z,-0.25
2022-12-03T06:36:31.089Z,-0.33
2022-12-03T06:38:58.526Z,-0.20
2022-12-03T06:41:25.916Z,-0.14
2022-12-03T06:43:53.081Z,-0.11
2022-12-03T06:46:20.352Z,-0.05
2022-12-03T06:48:47.937Z,-0.05
2022-12-03T06:51:17.394Z,-0.01
2022-12-03T06:53:44.333Z,-0.07
2022-12-03T06:56:11.751Z,-0.05
2022-12-03T06:58:39.169Z,-0.13
2022-12-03T07:01:06.593Z,-0.22
2022-12-03T07:03:33.585Z,-0.27
2022-12-03T07:06:01.341Z,-0.25
2022-12-03T07:08:46.874Z,-0.06
2022-12-03T07:11:32.664Z,0.08
2022-12-03T07:14:05.002Z,0.06
2022-12-03T07:16:34.973Z,0.12
2022-12-03T07:19:02.832Z,0.17
2022-12-03T07:21:30.933Z,0.09
2022-12-03T07:23:58.537Z,0.14
2022-12-03T07:26:26.078Z,0.15
2022-12-03T07:28:54.381Z,0.17
2022-12-03T07:31:21.849Z,0.09
2022-12-03T07:33:49.218Z,0.16
2022-12-03T07:36:17.417Z,0.05
2022-12-03T07:38:45.085Z,0.07
2022-12-03T07:41:12.171Z,0.04
2022-12-03T07:43:40.346Z,0.07
2022-12-03T07:46:08.743Z,0.06
2022-12-03T07:48:36.230Z,0.16
2022-12-03T07:51:03.915Z,0.10
2022-12-03T07:53:31.775Z,0.10
2022-12-03T07:55:59.137Z,-0.06
2022-12-03T07:58:33.267Z,-0.01
2022-12-03T08:01:01.868Z,-0.01
2022-12-03T08:03:28.819Z,0.05
2022-12-03T08:05:57.222Z,0.21
2022-12-03T08:08:24.781Z,0.31
2022-12-03T08:10:52.158Z,0.37
2022-12-03T08:13:19.685Z,0.38
2022-12-03T08:15:47.561Z,0.27
2022-12-03T08:18:20.932Z,0.34
2022-12-03T08:20:49.031Z,0.37
2022-12-03T08:23:26.770Z,0.37
2022-12-03T08:25:54.804Z,0.45
2022-12-03T08:28:25.931Z,0.55
2022-12-03T08:31:32.703Z,0.68
2022-12-03T08:34:22.326Z,0.57
2022-12-03T08:37:06.713Z,0.70
2022-12-03T08:39:44.765Z,0.62
2022-12-03T08:42:46.744Z,0.67
2022-12-03T08:45:40.810Z,0.67
2022-12-03T08:48:34.208Z,0.74
2022-12-03T08:51:25.388Z,0.84
2022-12-03T08:54:13.038Z,0.82
2022-12-03T08:56:56.447Z,0.69
2022-12-03T08:59:26.012Z,0.63
2022-12-03T09:02:00.042Z,0.63
2022-12-03T09:04:32.384Z,0.66
2022-12-03T09:06:59.759Z,0.64
2022-12-03T09:09:27.196Z,0.80
2022-12-03T09:11:56.118Z,0.82
2022-12-03T09:14:24.051Z,0.83
2022-12-03T09:16:56.104Z,0.77
2022-12-03T09:19:25.570Z,0.75
2022-12-03T09:21:54.341Z,0.81
2022-12-03T09:24:21.606Z,0.67
2022-12-03T09:26:49.580Z,0.68
2022-12-03T09:29:16.971Z,0.81
2022-12-03T09:31:44.400Z,0.73
2022-12-03T09:34:11.849Z,0.83
2022-12-03T09:36:39.340Z,0.76
2022-12-03T09:39:06.838Z,0.76
2022-12-03T09:41:34.326Z,0.78
2022-12-03T09:44:04.431Z,0.79
2022-12-03T09:46:37.902Z,1.09
2022-12-03T09:49:13.946Z,1.12
2022-12-03T09:51:45.905Z,0.98
2022-12-03T09:54:23.077Z,0.92
2022-12-03T09:56:51.920Z,1.06
2022-12-03T09:59:23.126Z,1.12
2022-12-03T10:01:53.189Z,1.17
2022-12-03T10:04:20.931Z,1.12
2022-12-03T10:06:48.507Z,1.13
2022-12-03T10:09:22.756Z,1.04
2022-12-03T10:11:50.893Z,1.06
2022-12-03T10:14:20.341Z,1.13
2022-12-03T10:16:48.059Z,1.12
2022-12-03T10:19:27.993Z,1.22
2022-12-03T10:21:56.514Z,1.16
2022-12-03T10:24:29.083Z,1.20
2022-12-03T10:26:59.594Z,1.25
2022-12-03T10:29:34.211Z,1.25
2022-12-03T10:32:13.055Z,1.39
2022-12-03T10:34:42.513Z,1.35
2022-12-03T10:37:18.631Z,1.20
2022-12-03T10:40:11.001Z,1.32
2022-12-03T10:42:41.160Z,1.28
2022-12-03T10:45:15.108Z,1.35
2022-12-03T10:48:03.594Z,1.26
2022-12-03T10:50:49.564Z,1.34
2022-12-03T10:53:19.371Z,1.38
2022-12-03T10:55:48.445Z,1.38
2022-12-03T10:58:22.325Z,1.44
2022-12-03T11:00:52.059Z,1.48
2022-12-03T11:03:22.625Z,1.39
2022-12-03T11:05:51.147Z,1.50
2022-12-03T11:08:21.162Z,1.37
2022-12-03T11:11:07.560Z,1.44
2022-12-03T11:13:50.035Z,1.50
2022-12-03T11:16:40.460Z,1.58
2022-12-03T11:19:13.138Z,1.62
2022-12-03T11:22:05.516Z,1.65
2022-12-03T11:24:35.910Z,1.65
2022-12-03T11:27:09.272Z,1.79
2022-12-03T11:29:46.169Z,1.95
2022-12-03T11:32:39.174Z,1.95
2022-12-03T11:35:28.529Z,1.86
2022-12-03T11:38:15.736Z,1.72
2022-12-03T11:41:08.514Z,1.70
2022-12-03T11:43:56.905Z,1.65
2022-12-03T11:46:38.142Z,1.59
2022-12-03T11:49:21.167Z,1.82
2022-12-03T11:51:58.946Z,1.81
2022-12-03T11:54:26.544Z,1.88
2022-12-03T11:56:56.367Z,1.64
2022-12-03T11:59:24.562Z,1.50
2022-12-03T12:01:51.511Z,1.39
2022-12-03T12:04:43.179Z,1.37
2022-12-03T12:07:12.090Z,1.41
2022-12-03T12:09:54.311Z,1.46
2022-12-03T12:12:38.589Z,1.40
2022-12-03T12:15:53.880Z,1.43
2022-12-03T12:18:39.647Z,1.54
2022-12-03T12:21:48.031Z,1.50
2022-12-03T12:24:54.025Z,1.55
2022-12-03T12:27:35.994Z,1.64
2022-12-03T12:30:13.996Z,1.44
2022-12-03T12:32:52.253Z,1.52
2022-12-03T12:35:24.546Z,1.56
2022-12-03T12:38:07.784Z,1.59
2022-12-03T12:40:37.726Z,1.52
2022-12-03T12:43:29.885Z,1.67
2022-12-03T12:46:38.633Z,1.71
2022-12-03T12:48:59.342Z,1.60
2022-12-03T12:51:43.776Z,1.67
2022-12-03T12:54:13.431Z,1.66
2022-12-03T12:56:44.485Z,1.71
2022-12-03T12:59:14.602Z,1.75
2022-12-03T13:01:44.393Z,1.78
2022-12-03T13:04:13.975Z,1.75
2022-12-03T13:06:41.575Z,1.78
2022-12-03T13:09:20.880Z,1.80
2022-12-03T13:12:01.539Z,1.78
2022-12-03T13:14:35.366Z,1.85
2022-12-03T13:17:14.294Z,1.71
2022-12-03T13:19:48.264Z,1.77
2022-12-03T13:22:25.791Z,1.73
2022-12-03T13:24:56.212Z,1.76
2022-12-03T13:27:29.857Z,1.87
2022-12-03T13:30:09.541Z,1.89
2022-12-03T13:32:42.698Z,1.82
2022-12-03T13:35:32.054Z,1.70
2022-12-03T13:37:59.625Z,1.67
2022-12-03T13:40:35.297Z,1.64
2022-12-03T13:43:20.329Z,1.73
2022-12-03T13:45:50.558Z,1.72
2022-12-03T13:48:45.521Z,1.66
2022-12-03T13:51:26.252Z,1.71
2022-12-03T13:53:54.587Z,1.68
2022-12-03T13:56:32.560Z,1.67
2022-12-03T13:59:01.889Z,1.67
2022-12-03T14:01:30.648Z,1.66
2022-12-03T14:03:57.728Z,1.62
2022-12-03T14:06:25.942Z,1.72
2022-12-03T14:08:53.218Z,1.71
2022-12-03T14:11:39.108Z,1.79
2022-12-03T14:14:06.515Z,1.77
2022-12-03T14:16:36.139Z,1.79
2022-12-03T14:19:03.693Z,1.71
2022-12-03T14:21:31.027Z,1.71
2022-12-03T14:23:58.409Z,1.80
2022-12-03T14:26:26.774Z,1.78
2022-12-03T14:28:53.850Z,1.87
2022-12-03T14:31:21.406Z,1.92
2022-12-03T14:33:48.732Z,1.91
2022-12-03T14:36:17.450Z,1.81
2022-12-03T14:38:44.717Z,1.96
2022-12-03T14:41:32.098Z,2.02
2022-12-03T14:44:01.101Z,2.10
2022-12-03T14:46:30.670Z,1.93
2022-12-03T14:48:59.122Z,2.11
2022-12-03T14:51:26.603Z,2.09
2022-12-03T14:53:53.997Z,2.07
2022-12-03T14:56:21.897Z,2.06
2022-12-03T14:58:48.894Z,2.13
2022-12-03T15:01:16.925Z,2.15
2022-12-03T15:03:43.929Z,2.08
2022-12-03T15:06:11.311Z,2.12
2022-12-03T15:08:38.720Z,2.05
2022-12-03T15:11:07.303Z,2.01
2022-12-03T15:13:34.696Z,2.05
2022-12-03T15:16:02.218Z,1.99
2022-12-03T15:18:31.283Z,1.95
2022-12-03T15:20:58.608Z,1.95
2022-12-03T15:23:26.029Z,2.13
2022-12-03T15:25:53.113Z,2.02
2022-12-03T15:28:22.139Z,2.12
2022-12-03T15:30:50.669Z,2.05
2022-12-03T15:33:18.899Z,2.06
2022-12-03T15:35:45.897Z,1.99
2022-12-03T15:38:13.580Z,2.05
2022-12-03T15:40:47.556Z,1.91
2022-12-03T15:43:14.948Z,2.02
2022-12-03T15:45:43.448Z,2.07
2022-12-03T15:48:11.240Z,2.00
2022-12-03T15:50:40.298Z,2.02
2022-12-03T15:53:08.916Z,1.94
2022-12-03T15:55:37.321Z,2.01
2022-12-03T15:58:04.723Z,1.99
2022-12-03T16:00:39.402Z,2.06
2022-12-03T16:03:06.905Z,2.06
2022-12-03T16:05:34.618Z,2.03
2022-12-03T16:08:02.929Z,2.08
2022-12-03T16:10:30.267Z,1.94
2022-12-03T16:12:59.519Z,1.87
2022-12-03T16:15:27.585Z,1.84
2022-12-03T16:17:54.879Z,1.72
2022-12-03T16:20:22.161Z,1.68
2022-12-03T16:22:51.400Z,1.67
2022-12-03T16:25:19.728Z,1.65
2022-12-03T16:27:47.593Z,1.70
2022-12-03T16:30:15.568Z,1.82
2022-12-03T16:32:42.654Z,1.85
2022-12-03T16:35:10.401Z,1.83
2022-12-03T16:37:40.055Z,1.87
2022-12-03T16:40:08.148Z,1.83
2022-12-03T16:42:37.537Z,1.93
2022-12-03T16:45:08.409Z,1.98
2022-12-03T16:47:36.364Z,1.90
2022-12-03T16:50:09.867Z,1.96
2022-12-03T16:52:40.225Z,1.99
2022-12-03T16:55:08.250Z,2.07
2022-12-03T16:57:35.928Z,1.98
2022-12-03T17:00:03.886Z,1.97
2022-12-03T17:02:31.073Z,1.97
2022-12-03T17:04:58.562Z,1.94
2022-12-03T17:07:26.266Z,2.00
2022-12-03T17:09:55.701Z,1.96
2022-12-03T17:12:23.048Z,1.95
2022-12-03T17:14:50.297Z,1.96
2022-12-03T17:17:18.368Z,1.94
2022-12-03T17:19:45.305Z,1.90
2022-12-03T17:22:12.192Z,1.94
2022-12-03T17:24:39.173Z,1.80
2022-12-03T17:27:08.129Z,1.79
2022-12-03T17:29:35.072Z,1.65
2022-12-03T17:32:02.150Z,1.58
2022-12-03T17:34:29.751Z,1.62
2022-12-03T17:36:56.967Z,1.72
2022-12-03T17:39:24.021Z,1.74
2022-12-03T17:41:51.357Z,1.83
2022-12-03T17:44:21.198Z,1.77
2022-12-03T17:46:50.009Z,1.66
2022-12-03T17:49:17.724Z,1.80
2022-12-03T17:51:44.775Z,1.76
2022-12-03T17:54:13.109Z,1.79
2022-12-03T17:56:43.829Z,1.87
2022-12-03T17:59:12.145Z,1.71
2022-12-03T18:01:39.793Z,1.77
2022-12-03T18:04:07.727Z,1.80
2022-12-03T18:06:34.765Z,1.75
2022-12-03T18:09:03.087Z,1.66
2022-12-03T18:11:30.818Z,1.73
2022-12-03T18:13:58.768Z,1.76
2022-12-03T18:16:26.280Z,1.80
2022-12-03T18:18:56.691Z,1.80
2022-12-03T18:21:26.905Z,1.86
2022-12-03T18:23:56.429Z,1.84
2022-12-03T18:26:23.440Z,1.77
2022-12-03T18:28:56.770Z,1.71
2022-12-03T18:31:24.365Z,1.70
2022-12-03T18:33:52.047Z,1.66
2022-12-03T18:36:22.996Z,1.64
2022-12-03T18:38:55.767Z,1.61
2022-12-03T18:41:24.406Z,1.56
2022-12-03T18:43:53.745Z,1.58
2022-12-03T18:49:10.609Z,1.60
2022-12-03T18:51:38.364Z,1.60
2022-12-03T18:54:12.720Z,1.56
2022-12-03T18:56:41.427Z,1.56
2022-12-03T18:59:15.065Z,1.55
2022-12-03T19:01:43.357Z,1.59
2022-12-03T19:04:11.540Z,1.61
2022-12-03T19:06:41.082Z,1.51
2022-12-03T19:09:09.693Z,1.58
2022-12-03T19:11:37.072Z,1.57
2022-12-03T19:14:04.488Z,1.46
2022-12-03T19:16:33.296Z,1.45
2022-12-03T19:19:02.482Z,1.53
2022-12-03T19:21:33.687Z,1.57
2022-12-03T19:24:23.800Z,1.53
2022-12-03T19:26:55.745Z,1.55
2022-12-03T19:29:24.087Z,1.59
2022-12-03T19:31:52.187Z,1.57
2022-12-03T19:34:20.415Z,1.45
2022-12-03T19:36:49.028Z,1.43
2022-12-03T19:39:16.403Z,1.44
2022-12-03T19:41:47.723Z,1.42
2022-12-03T19:44:17.617Z,1.48
2022-12-03T19:46:45.785Z,1.43
2022-12-03T19:49:21.532Z,1.46
2022-12-03T19:51:49.287Z,1.49
2022-12-03T19:54:17.966Z,1.41
2022-12-03T19:56:45.406Z,1.42
2022-12-03T19:59:14.592Z,1.46
2022-12-03T20:01:43.727Z,1.52
2022-12-03T20:04:13.367Z,1.42
2022-12-03T20:06:41.077Z,1.52
2022-12-03T20:09:14.078Z,1.50
2022-12-03T20:11:44.809Z,1.48
2022-12-03T20:14:15.645Z,1.46
2022-12-03T20:16:48.022Z,1.38
2022-12-03T20:19:18.278Z,1.44
2022-12-03T20:21:47.264Z,1.41
2022-12-03T20:24:17.569Z,1.35
2022-12-03T20:26:45.260Z,1.19
2022-12-03T20:29:13.256Z,1.32
2022-12-03T20:31:41.176Z,1.35
2022-12-03T20:34:10.672Z,1.29
2022-12-03T20:36:38.620Z,1.35
2022-12-03T20:39:08.017Z,1.37
2022-12-03T20:41:37.156Z,1.30
2022-12-03T20:44:06.879Z,1.33
2022-12-03T20:46:34.752Z,1.28
2022-12-03T20:49:05.664Z,1.30
2022-12-03T20:51:34.308Z,1.33
2022-12-03T20:54:02.348Z,1.46
2022-12-03T20:56:32.695Z,1.46
2022-12-03T20:59:13.685Z,1.38
2022-12-03T21:01:41.851Z,1.39
2022-12-03T21:04:10.371Z,1.40
2022-12-03T21:06:38.230Z,1.44
2022-12-03T21:09:09.330Z,1.38
2022-12-03T21:11:39.551Z,1.23
2022-12-03T21:14:07.496Z,1.26
2022-12-03T21:17:10.339Z,1.33
2022-12-03T21:19:29.497Z,1.22
2022-12-03T21:21:57.056Z,1.19
2022-12-03T21:24:24.464Z,1.22
2022-12-03T21:26:51.854Z,1.14
2022-12-03T21:29:19.348Z,1.14
2022-12-03T21:31:47.278Z,1.08
2022-12-03T21:34:14.903Z,1.18
2022-12-03T21:36:42.283Z,1.07
2022-12-03T21:39:10.379Z,1.05
2022-12-03T21:41:37.579Z,0.95
2022-12-03T21:44:05.217Z,0.90
2022-12-03T21:47:11.972Z,0.96
2022-12-03T21:49:33.111Z,0.89
2022-12-03T21:52:00.181Z,0.82
2022-12-03T21:54:28.556Z,0.93
2022-12-03T21:56:55.940Z,0.87
2022-12-03T21:59:23.116Z,0.94
2022-12-03T22:01:50.542Z,1.00
2022-12-03T22:04:18.194Z,1.09
2022-12-03T22:06:45.831Z,1.03
2022-12-03T22:09:13.897Z,0.96
2022-12-03T22:11:41.225Z,0.96
2022-12-03T22:14:10.069Z,0.85
2022-12-03T22:16:37.296Z,0.93
2022-12-03T22:19:04.831Z,1.04
2022-12-03T22:21:35.896Z,0.92
2022-12-03T22:24:03.428Z,1.02
2022-12-03T22:26:30.730Z,1.07
2022-12-03T22:28:58.104Z,1.05
2022-12-03T22:31:26.162Z,1.09
2022-12-03T22:33:53.583Z,1.04
2022-12-03T22:36:22.656Z,1.09
2022-12-03T22:38:51.328Z,1.09
2022-12-03T22:41:20.374Z,1.05
2022-12-03T22:43:49.083Z,1.04
2022-12-03T22:46:17.634Z,0.98
2022-12-03T22:48:46.864Z,1.07
2022-12-03T22:51:23.674Z,1.06
2022-12-03T22:53:55.651Z,1.01
2022-12-03T22:56:31.704Z,1.05
2022-12-03T22:58:59.425Z,1.01
2022-12-03T23:01:30.188Z,1.08
2022-12-03T23:03:57.739Z,1.14
2022-12-03T23:06:25.424Z,1.20
2022-12-03T23:08:53.203Z,1.20
2022-12-03T23:11:23.001Z,1.18
2022-12-03T23:13:50.756Z,1.18
2022-12-03T23:16:22.537Z,1.12
2022-12-03T23:18:52.973Z,1.09
2022-12-03T23:21:29.004Z,1.14
2022-12-03T23:24:00.455Z,1.16
2022-12-03T23:26:27.773Z,1.20
2022-12-03T23:28:55.295Z,1.27
2022-12-03T23:31:28.290Z,1.22
2022-12-03T23:33:57.358Z,1.22
2022-12-03T23:36:26.389Z,1.23
2022-12-03T23:38:54.256Z,1.30
2022-12-03T23:41:23.952Z,1.29
2022-12-03T23:43:51.950Z,1.35
2022-12-03T23:46:23.950Z,1.33
2022-12-03T23:48:52.137Z,1.25
2022-12-03T23:51:22.804Z,1.27
2022-12-03T23:53:50.588Z,1.22
2022-12-03T23:56:22.103Z,1.23
2022-12-03T23:58:49.669Z,1.32
